Time;durP1;ratioP1;P1;durP2;ratioP2;P2;SDS_P1;SDS_P2;PMS_P1;PMS_P2;Temp;Humidity;BMP_temperature;BMP_pressure;BME280_temperature;BME280_humidity;BME280_pressure;Samples;Min_cycle;Max_cycle;Signal;HPM_P1;HPM_P2
2021/03/04 00:00:13;;;;;;;63.60;36.60;;;;;;;9.04;82.53;100972.03;5096077;28;20047;-75
2021/03/04 00:02:40;;;;;;;60.15;35.83;;;;;;;9.00;82.66;100966.91;5096466;28;20052;-76
2021/03/04 00:05:08;;;;;;;65.57;38.40;;;;;;;9.09;81.98;100963.84;5096721;28;20117;-73
2021/03/04 00:07:35;;;;;;;66.80;38.90;;;;;;;8.98;82.79;100974.09;5096125;28;20064;-75
2021/03/04 00:10:11;;;;;;;68.53;38.25;;;;;;;8.95;83.05;100961.75;5095948;28;20147;-74
2021/03/04 00:12:39;;;;;;;73.07;40.83;;;;;;;9.14;82.11;100971.66;5078189;28;20429;-73
2021/03/04 00:15:07;;;;;;;73.43;41.15;;;;;;;9.09;81.95;100961.16;5095913;28;20052;-77
2021/03/04 00:17:42;;;;;;;63.97;37.33;;;;;;;8.95;82.97;100962.63;5095908;28;20056;-76
2021/03/04 00:20:12;;;;;;;76.40;40.88;;;;;;;9.05;82.67;100963.09;5094603;28;20148;-74
2021/03/04 00:22:38;;;;;;;71.75;39.92;;;;;;;9.08;82.33;100957.66;5094540;28;20059;-74
2021/03/04 00:25:05;;;;;;;70.60;38.20;;;;;;;9.05;81.61;100968.41;5077471;28;20056;-74
2021/03/04 00:27:31;;;;;;;66.95;38.92;;;;;;;9.01;82.10;100949.97;5095818;28;20060;-76
2021/03/04 00:29:58;;;;;;;70.00;39.65;;;;;;;9.05;82.29;100955.09;5095948;28;20050;-75
2021/03/04 00:32:24;;;;;;;76.60;41.85;;;;;;;8.95;83.06;100951.97;5077381;28;20048;-74
2021/03/04 00:34:51;;;;;;;73.25;39.92;;;;;;;8.91;83.71;100949.50;5095931;28;20052;-75
2021/03/04 00:37:17;;;;;;;67.57;41.00;;;;;;;8.81;84.08;100951.66;5094969;28;20052;-76
2021/03/04 00:39:43;;;;;;;67.15;40.50;;;;;;;8.68;84.79;100941.50;5077766;28;20056;-73
2021/03/04 00:42:09;;;;;;;69.78;40.63;;;;;;;8.70;85.45;100946.78;5095499;28;20044;-73
2021/03/04 00:44:36;;;;;;;69.50;39.78;;;;;;;8.70;85.69;100946.78;5094922;28;20044;-73
2021/03/04 00:47:04;;;;;;;74.00;42.92;;;;;;;8.61;86.13;100948.03;5095415;28;20057;-73
2021/03/04 00:49:30;;;;;;;72.03;40.55;;;;;;;8.70;86.18;100941.47;5077493;28;20071;-75
2021/03/04 00:51:56;;;;;;;75.63;43.38;;;;;;;8.68;86.66;100940.66;5095254;28;20044;-75
2021/03/04 00:54:22;;;;;;;75.95;44.25;;;;;;;8.65;86.24;100931.00;5077836;28;20051;-76
2021/03/04 00:56:48;;;;;;;72.05;41.35;;;;;;;8.58;86.53;100928.66;5095566;28;20083;-75
2021/03/04 00:59:15;;;;;;;73.53;40.17;;;;;;;8.55;86.35;100921.66;5077557;28;20074;-74
2021/03/04 01:01:41;;;;;;;66.78;42.88;;;;;;;8.56;86.36;100926.06;5095303;28;20055;-76
2021/03/04 01:04:07;;;;;;;75.35;41.88;;;;;;;8.50;86.79;100924.47;5076856;28;20061;-76
2021/03/04 01:06:33;;;;;;;73.32;41.80;;;;;;;8.48;87.45;100926.34;5095054;28;20052;-75
2021/03/04 01:09:00;;;;;;;70.78;43.58;;;;;;;8.41;87.27;100912.41;5094391;28;20098;-74
2021/03/04 01:11:26;;;;;;;73.55;44.60;;;;;;;8.40;87.87;100916.00;5077223;28;20112;-73
2021/03/04 01:13:52;;;;;;;76.80;44.35;;;;;;;8.41;87.72;100911.56;5077669;28;20368;-75
2021/03/04 01:16:18;;;;;;;80.75;45.58;;;;;;;8.38;87.83;100909.00;5095162;28;20077;-75
2021/03/04 01:18:44;;;;;;;78.20;45.03;;;;;;;8.30;88.02;100906.66;5095937;28;20048;-76
2021/03/04 01:21:10;;;;;;;73.18;43.42;;;;;;;8.28;88.02;100913.81;5097443;28;20056;-74
2021/03/04 01:23:37;;;;;;;71.57;44.13;;;;;;;8.22;88.25;100914.94;5105268;28;20052;-73
2021/03/04 01:26:03;;;;;;;90.18;51.90;;;;;;;8.22;88.07;100909.59;5107080;28;20130;-75
2021/03/04 01:28:29;;;;;;;88.43;50.42;;;;;;;8.24;88.47;100912.22;5104742;28;20089;-73
2021/03/04 01:30:56;;;;;;;87.15;54.63;;;;;;;8.22;87.77;100898.97;5095714;28;20051;-74
2021/03/04 01:33:22;;;;;;;90.55;54.13;;;;;;;8.18;87.63;100902.69;5095342;28;20048;-74
2021/03/04 01:35:48;;;;;;;89.72;54.55;;;;;;;8.16;87.83;100899.22;5096713;28;20052;-74
2021/03/04 01:38:15;;;;;;;96.82;54.28;;;;;;;8.14;87.77;100901.94;5094136;28;20051;-76
2021/03/04 01:40:42;;;;;;;87.60;52.63;;;;;;;8.11;87.53;100901.16;5094663;28;20051;-76
2021/03/04 01:43:08;;;;;;;85.70;51.83;;;;;;;8.15;87.87;100897.47;5077135;28;20090;-74
2021/03/04 01:45:34;;;;;;;98.10;52.20;;;;;;;8.11;88.01;100901.16;5094567;28;20345;-77
2021/03/04 01:48:02;;;;;;;86.20;54.28;;;;;;;8.06;87.46;100893.38;5094967;28;20056;-77
2021/03/04 01:50:30;;;;;;;93.30;54.53;;;;;;;8.11;87.86;100895.84;5094359;28;20712;-76
2021/03/04 01:52:57;;;;;;;89.30;54.70;;;;;;;8.06;87.99;100892.53;5094716;28;20098;-73
2021/03/04 01:55:23;;;;;;;90.93;54.53;;;;;;;8.21;87.72;100899.91;5094710;28;20128;-75
2021/03/04 01:57:50;;;;;;;93.78;54.95;;;;;;;8.10;87.15;100872.84;5094666;28;20429;-75
2021/03/04 02:00:19;;;;;;;83.88;53.38;;;;;;;8.11;87.63;100880.78;5094490;28;20052;-74
2021/03/04 02:02:45;;;;;;;89.10;54.63;;;;;;;8.08;87.66;100869.41;5094518;28;20341;-75
2021/03/04 02:05:14;;;;;;;82.47;55.67;;;;;;;8.04;88.13;100867.78;5094702;28;20135;-73
2021/03/04 02:07:44;;;;;;;103.47;57.05;;;;;;;8.05;88.14;100867.72;5094368;28;20055;-73
2021/03/04 02:10:19;;;;;;;90.68;57.03;;;;;;;8.02;88.31;100855.41;5094490;28;20453;-75
2021/03/04 02:13:10;;;;;;;101.00;58.85;;;;;;;8.01;88.52;100850.19;5094347;28;20102;-73
2021/03/04 02:15:49;;;;;;;94.43;57.15;;;;;;;7.89;88.77;100848.84;5094759;28;20048;-73
2021/03/04 02:18:17;;;;;;;87.05;56.92;;;;;;;7.92;88.51;100840.78;5098024;28;20177;-73
2021/03/04 02:21:03;;;;;;;93.07;57.25;;;;;;;7.86;88.12;100823.25;5098035;28;20140;-75
2021/03/04 02:24:06;;;;;;;86.85;54.63;;;;;;;8.00;88.00;100824.50;5098092;28;20055;-74
2021/03/04 02:26:57;;;;;;;91.78;56.42;;;;;;;7.91;87.91;100823.09;5080157;28;20108;-75
2021/03/04 02:29:24;;;;;;;94.22;58.50;;;;;;;7.84;88.10;100817.13;5097514;28;20044;-73
2021/03/04 02:31:54;;;;;;;96.95;59.75;;;;;;;7.85;88.52;100823.34;5098038;28;20055;-73
2021/03/04 02:34:24;;;;;;;88.57;57.97;;;;;;;7.96;88.81;100829.06;5097905;28;20059;-75
2021/03/04 02:36:52;;;;;;;94.05;59.67;;;;;;;7.86;88.79;100833.88;5097956;28;20298;-73
2021/03/04 02:39:22;;;;;;;94.55;61.28;;;;;;;7.75;89.20;100826.31;5097856;28;20043;-73
2021/03/04 02:41:48;;;;;;;85.70;53.22;;;;;;;7.63;88.19;100815.31;5097990;28;20409;-73
2021/03/04 02:44:15;;;;;;;84.75;53.85;;;;;;;7.68;88.17;100824.84;5079735;28;20118;-74
2021/03/04 02:46:43;;;;;;;78.72;49.25;;;;;;;7.56;87.61;100812.88;5097727;28;20093;-74
2021/03/04 02:49:17;;;;;;;83.55;51.38;;;;;;;7.49;87.93;100806.06;5080633;28;20060;-73
2021/03/04 02:51:43;;;;;;;87.63;51.03;;;;;;;7.50;88.14;100805.16;5097703;28;20055;-75
2021/03/04 02:54:10;;;;;;;83.68;52.70;;;;;;;7.40;88.17;100807.28;5097363;28;20436;-72
2021/03/04 02:56:37;;;;;;;84.75;51.92;;;;;;;7.47;88.63;100803.47;5079585;28;20050;-74
2021/03/04 02:59:06;;;;;;;82.80;51.05;;;;;;;7.59;87.76;100810.09;5097498;28;20055;-75
2021/03/04 03:01:33;;;;;;;92.45;52.97;;;;;;;7.68;87.63;100808.88;5078125;28;20052;-75
2021/03/04 03:04:01;;;;;;;91.45;56.13;;;;;;;7.70;87.77;100807.06;5088395;28;20079;-73
2021/03/04 03:06:28;;;;;;;85.60;53.85;;;;;;;7.83;87.23;100798.59;5077074;28;20055;-74
2021/03/04 03:08:55;;;;;;;80.70;52.75;;;;;;;7.88;87.37;100800.16;5093971;28;20055;-75
2021/03/04 03:11:22;;;;;;;85.13;50.58;;;;;;;7.93;87.52;100807.06;5096974;28;20053;-74
2021/03/04 03:13:54;;;;;;;82.22;49.83;;;;;;;7.99;86.46;100791.75;5094222;28;20060;-73
2021/03/04 03:16:21;;;;;;;80.85;49.05;;;;;;;7.92;86.81;100798.25;5043600;28;20052;-75
2021/03/04 03:18:48;;;;;;;83.32;49.45;;;;;;;7.85;87.34;100794.94;5076700;28;20049;-74
2021/03/04 03:21:14;;;;;;;78.85;48.03;;;;;;;8.02;86.74;100796.94;5076668;28;20044;-75
2021/03/04 03:23:40;;;;;;;73.05;46.70;;;;;;;8.04;86.36;100785.38;5076562;28;20063;-74
2021/03/04 03:26:07;;;;;;;72.95;45.50;;;;;;;8.04;85.64;100782.72;5058488;28;20341;-75
2021/03/04 03:28:33;;;;;;;74.13;43.97;;;;;;;8.04;85.43;100782.72;5076336;28;20105;-75
2021/03/04 03:30:59;;;;;;;81.47;44.92;;;;;;;8.08;85.40;100793.19;5059171;28;20055;-74
2021/03/04 03:33:26;;;;;;;75.80;42.45;;;;;;;8.04;84.91;100780.03;5059073;28;20079;-74
2021/03/04 03:35:52;;;;;;;78.75;44.10;;;;;;;7.95;84.99;100774.19;5076380;28;20049;-75
2021/03/04 03:38:20;;;;;;;69.82;40.30;;;;;;;8.04;84.54;100766.75;5076467;28;20056;-75
2021/03/04 03:40:49;;;;;;;69.25;39.53;;;;;;;8.12;83.72;100764.69;5092872;28;20048;-75
2021/03/04 03:43:16;;;;;;;68.43;39.33;;;;;;;8.09;83.84;100767.44;5096679;28;20055;-73
2021/03/04 03:45:45;;;;;;;69.50;38.88;;;;;;;8.05;84.00;100768.50;5096722;28;20052;-73
2021/03/04 03:48:15;;;;;;;68.60;39.50;;;;;;;8.05;84.32;100766.69;5096717;28;20051;-73
2021/03/04 03:50:43;;;;;;;68.15;40.88;;;;;;;8.04;84.79;100764.09;5078203;28;20056;-76
2021/03/04 03:53:14;;;;;;;73.53;41.83;;;;;;;7.99;84.91;100758.97;5078705;28;20051;-74
2021/03/04 03:55:45;;;;;;;77.13;40.67;;;;;;;7.96;85.24;100749.31;5096677;28;20047;-75
2021/03/04 03:58:13;;;;;;;75.97;40.53;;;;;;;7.92;85.14;100739.75;5096262;28;20051;-76
2021/03/04 04:00:41;;;;;;;70.30;41.60;;;;;;;7.95;85.86;100752.06;5097391;28;20151;-76
2021/03/04 04:03:09;;;;;;;86.93;43.97;;;;;;;7.92;86.30;100747.75;5097424;28;20318;-76
2021/03/04 04:05:35;;;;;;;71.05;44.05;;;;;;;7.93;86.11;100744.16;5095539;28;20383;-77
2021/03/04 04:08:03;;;;;;;71.88;41.75;;;;;;;7.91;86.28;100738.03;5078238;28;20139;-76
2021/03/04 04:10:31;;;;;;;79.28;44.67;;;;;;;7.86;86.26;100740.84;5096288;28;20105;-77
2021/03/04 04:12:58;;;;;;;73.78;41.97;;;;;;;7.89;86.00;100737.22;5095883;28;20059;-74
2021/03/04 04:15:26;;;;;;;74.80;43.20;;;;;;;7.92;86.17;100729.13;5095062;28;20048;-76
2021/03/04 04:17:56;;;;;;;74.15;43.60;;;;;;;7.92;85.99;100730.91;5095844;28;20054;-74
2021/03/04 04:20:42;;;;;;;75.90;43.80;;;;;;;7.95;85.62;100721.03;5096122;28;20156;-73
2021/03/04 04:23:08;;;;;;;74.95;42.53;;;;;;;8.01;84.93;100718.09;5096025;28;20101;-76
2021/03/04 04:25:42;;;;;;;72.38;43.88;;;;;;;7.99;85.14;100713.78;5095872;28;20048;-74
2021/03/04 04:28:09;;;;;;;76.07;44.05;;;;;;;7.96;84.91;100708.59;5095892;28;20051;-76
2021/03/04 04:30:35;;;;;;;82.85;44.78;;;;;;;8.02;85.14;100711.84;5096018;28;20415;-74
2021/03/04 04:33:01;;;;;;;67.63;42.30;;;;;;;8.02;85.10;100711.00;5095818;28;20063;-75
2021/03/04 04:35:27;;;;;;;71.85;43.85;;;;;;;7.92;85.74;100705.22;5095646;28;20055;-76
2021/03/04 04:37:53;;;;;;;69.72;42.08;;;;;;;7.95;85.44;100706.88;5095676;28;20058;-76
2021/03/04 04:40:20;;;;;;;72.55;41.97;;;;;;;8.11;85.24;100734.53;5095185;28;20375;-75
2021/03/04 04:42:46;;;;;;;74.07;37.53;;;;;;;7.99;83.04;100746.56;5095285;28;20101;-77
2021/03/04 04:45:12;;;;;;;69.25;35.97;;;;;;;7.97;83.53;100747.53;5094344;28;20056;-74
2021/03/04 04:47:38;;;;;;;61.97;33.63;;;;;;;7.84;83.30;100753.34;5095369;28;20142;-77
2021/03/04 04:50:05;;;;;;;72.28;34.58;;;;;;;7.86;84.63;100762.13;5060728;28;20059;-76
2021/03/04 04:52:32;;;;;;;74.53;36.95;;;;;;;7.75;86.27;100773.19;5095485;28;20097;-73
2021/03/04 04:54:58;;;;;;;74.70;35.58;;;;;;;7.63;87.80;100762.19;5094101;28;20357;-76
2021/03/04 04:57:25;;;;;;;71.13;36.63;;;;;;;7.49;89.57;100763.59;5095402;28;20055;-74
2021/03/04 04:59:51;;;;;;;69.32;38.83;;;;;;;7.37;90.88;100767.56;5077661;28;20048;-75
2021/03/04 05:02:17;;;;;;;75.68;37.83;;;;;;;7.28;91.91;100762.59;5095129;28;20422;-74
2021/03/04 05:04:44;;;;;;;69.32;39.30;;;;;;;7.00;93.36;100748.56;5095493;28;20048;-75
2021/03/04 05:07:10;;;;;;;71.68;41.75;;;;;;;6.77;94.78;100747.59;5095982;28;20406;-74
2021/03/04 05:09:36;;;;;;;75.47;42.00;;;;;;;6.77;95.66;100752.06;5077944;28;20334;-74
2021/03/04 05:12:03;;;;;;;87.53;45.33;;;;;;;6.74;97.18;100747.72;5095199;28;20094;-75
2021/03/04 05:14:29;;;;;;;80.90;43.35;;;;;;;6.82;97.44;100752.75;5095258;28;20051;-73
2021/03/04 05:16:55;;;;;;;84.90;44.33;;;;;;;6.84;97.05;100764.19;5095264;28;20052;-74
2021/03/04 05:19:22;;;;;;;89.63;48.85;;;;;;;6.79;97.52;100761.69;5095275;28;20056;-75
2021/03/04 05:21:49;;;;;;;82.00;46.90;;;;;;;6.82;98.12;100771.34;5094500;28;20082;-74
2021/03/04 05:24:15;;;;;;;80.78;45.95;;;;;;;6.89;98.24;100770.19;5094873;28;20437;-76
2021/03/04 05:26:41;;;;;;;81.57;45.22;;;;;;;6.87;98.14;100774.66;5094962;28;20056;-76
2021/03/04 05:29:07;;;;;;;66.53;42.35;;;;;;;6.88;98.28;100770.25;5095155;28;20044;-75
2021/03/04 05:31:34;;;;;;;69.88;42.78;;;;;;;6.99;98.66;100777.81;5095078;28;20616;-74
2021/03/04 05:34:00;;;;;;;61.58;39.95;;;;;;;6.96;98.31;100767.31;5095198;28;20140;-74
2021/03/04 05:36:26;;;;;;;56.80;37.92;;;;;;;7.00;98.36;100766.28;5094900;28;20044;-75
2021/03/04 05:38:53;;;;;;;64.72;41.35;;;;;;;7.02;99.23;100764.41;5094848;28;20083;-74
2021/03/04 05:41:22;;;;;;;59.92;41.83;;;;;;;7.11;99.22;100756.13;5094699;28;20048;-73
2021/03/04 05:43:50;;;;;;;57.42;39.72;;;;;;;7.14;99.25;100755.16;5094645;28;20451;-73
2021/03/04 05:46:20;;;;;;;59.22;42.03;;;;;;;7.11;99.82;100748.16;5094548;28;20054;-74
2021/03/04 05:48:48;;;;;;;58.47;40.50;;;;;;;7.15;99.72;100757.72;5077185;28;20052;-75
2021/03/04 05:51:22;;;;;;;59.58;40.80;;;;;;;7.19;100.00;100738.13;5097450;28;20059;-75
2021/03/04 05:53:53;;;;;;;59.72;40.13;;;;;;;7.28;100.00;100746.66;5098588;28;20056;-75
2021/03/04 05:56:21;;;;;;;66.47;40.95;;;;;;;7.30;99.88;100735.06;5098882;28;20051;-73
2021/03/04 05:58:50;;;;;;;58.05;40.30;;;;;;;7.32;99.97;100743.81;5098940;28;20052;-73
2021/03/04 06:01:17;;;;;;;64.07;41.03;;;;;;;7.30;100.00;100719.13;5098963;28;20044;-72
2021/03/04 06:03:45;;;;;;;60.05;38.25;;;;;;;7.32;100.00;100698.69;5099867;28;20052;-76
2021/03/04 06:06:11;;;;;;;59.15;37.40;;;;;;;7.39;100.00;100694.00;5098425;28;20097;-73
2021/03/04 06:08:38;;;;;;;64.22;40.72;;;;;;;7.37;100.00;100687.03;5099604;28;20048;-75
2021/03/04 06:11:06;;;;;;;58.28;36.80;;;;;;;7.41;100.00;100689.50;5098405;28;20048;-74
2021/03/04 06:13:33;;;;;;;58.42;37.72;;;;;;;7.41;100.00;100681.53;5098717;28;20414;-74
2021/03/04 06:16:00;;;;;;;67.15;36.85;;;;;;;7.42;100.00;100685.91;5065913;28;20075;-74
2021/03/04 06:18:38;;;;;;;58.92;37.80;;;;;;;7.43;100.00;100698.28;5109623;28;20048;-72
2021/03/04 06:21:20;;;;;;;60.60;37.95;;;;;;;7.46;100.00;100681.34;5087388;28;20044;-70
2021/03/04 06:23:47;;;;;;;64.50;39.72;;;;;;;7.47;100.00;100673.31;5091930;28;20059;-70
2021/03/04 06:26:35;;;;;;;66.70;40.65;;;;;;;7.44;100.00;100656.66;5070883;28;20074;-76
2021/03/04 06:29:15;;;;;;;66.05;39.80;;;;;;;7.43;100.00;100662.88;5093780;28;20368;-75
2021/03/04 06:31:42;;;;;;;70.57;42.25;;;;;;;7.55;100.00;100667.72;5096827;28;20054;-74
2021/03/04 06:34:19;;;;;;;73.18;40.38;;;;;;;7.50;100.00;100677.66;5097790;28;20044;-72
2021/03/04 06:37:03;;;;;;;67.45;40.25;;;;;;;7.56;100.00;100665.91;5094808;28;20051;-72
2021/03/04 06:39:39;;;;;;;67.70;40.15;;;;;;;7.55;100.00;100664.19;5093393;28;20072;-73
2021/03/04 06:42:06;;;;;;;71.88;42.03;;;;;;;7.50;100.00;100669.69;5093890;28;20413;-72
2021/03/04 06:44:57;;;;;;;72.68;44.15;;;;;;;7.44;100.00;100668.16;5095027;28;20212;-75
2021/03/04 06:47:25;;;;;;;68.47;41.75;;;;;;;7.48;100.00;100664.44;5095863;28;20078;-73
2021/03/04 06:49:54;;;;;;;62.17;40.10;;;;;;;7.52;100.00;100659.00;5096730;28;20052;-77
2021/03/04 06:52:38;;;;;;;71.13;44.35;;;;;;;7.59;100.00;100671.97;5094472;28;20093;-72
2021/03/04 06:55:08;;;;;;;62.38;40.03;;;;;;;7.66;100.00;100671.72;5096917;28;20051;-75
2021/03/04 06:57:34;;;;;;;70.57;41.30;;;;;;;7.67;100.00;100660.19;5079293;28;20125;-74
2021/03/04 07:00:00;;;;;;;59.35;39.55;;;;;;;7.63;100.00;100650.59;5097163;28;20044;-76
2021/03/04 07:02:29;;;;;;;69.85;40.72;;;;;;;7.65;100.00;100665.56;5095473;28;20040;-75
2021/03/04 07:05:01;;;;;;;55.53;35.70;;;;;;;7.67;100.00;100671.66;5096616;28;20334;-73
2021/03/04 07:07:28;;;;;;;58.88;37.42;;;;;;;7.67;100.00;100666.34;5094281;28;20066;-76
2021/03/04 07:10:04;;;;;;;59.60;37.05;;;;;;;7.75;100.00;100661.56;5096364;28;20055;-77
2021/03/04 07:12:32;;;;;;;57.85;34.97;;;;;;;7.73;100.00;100663.44;5096719;28;20058;-74
2021/03/04 07:14:59;;;;;;;54.20;35.97;;;;;;;7.79;100.00;100669.44;5096292;28;20052;-75
2021/03/04 07:17:28;;;;;;;48.95;31.58;;;;;;;7.81;99.95;100651.63;5095540;28;20048;-75
2021/03/04 07:19:57;;;;;;;60.30;36.53;;;;;;;7.88;99.84;100667.25;5096391;28;20097;-75
2021/03/04 07:22:26;;;;;;;54.05;33.67;;;;;;;7.89;100.00;100665.44;5096570;28;20052;-75
2021/03/04 07:24:53;;;;;;;62.00;33.38;;;;;;;7.89;100.00;100670.78;5096176;28;20056;-75
2021/03/04 07:27:19;;;;;;;56.75;33.90;;;;;;;7.92;99.71;100670.66;5096078;28;20056;-75
2021/03/04 07:29:46;;;;;;;48.67;31.48;;;;;;;7.82;100.00;100659.53;5094230;28;20408;-75
2021/03/04 07:32:13;;;;;;;53.40;31.95;;;;;;;7.90;100.00;100680.47;5095433;28;20054;-76
2021/03/04 07:34:42;;;;;;;51.50;31.70;;;;;;;7.91;100.00;100676.03;5078035;28;20048;-76
2021/03/04 07:37:14;;;;;;;49.70;31.17;;;;;;;7.92;100.00;100678.63;5078780;28;20353;-76
2021/03/04 07:39:40;;;;;;;47.72;29.83;;;;;;;7.90;100.00;100676.97;5096299;28;20051;-75
2021/03/04 07:42:21;;;;;;;47.95;28.55;;;;;;;7.87;100.00;100673.50;5095826;28;20052;-75
2021/03/04 07:44:47;;;;;;;;;;;;;;;7.91;100.00;100668.94;5092232;28;20063;-76
2021/03/04 07:47:14;;;;;;;43.38;27.85;;;;;;;7.89;100.00;100670.78;5074179;28;19924;-75
2021/03/04 07:49:43;;;;;;;48.03;28.63;;;;;;;7.91;100.00;100655.66;5093241;28;20057;-75
2021/03/04 07:52:17;;;;;;;51.50;28.85;;;;;;;7.78;99.90;100636.66;5095828;28;20388;-75
2021/03/04 07:54:55;;;;;;;42.50;26.90;;;;;;;7.86;99.78;100647.84;5096488;28;20147;-75
2021/03/04 07:57:25;;;;;;;39.08;25.52;;;;;;;7.95;99.21;100646.59;5096083;28;20064;-75
2021/03/04 07:59:59;;;;;;;49.70;26.42;;;;;;;7.94;99.59;100650.19;5075218;28;20223;-76
2021/03/04 08:02:27;;;;;;;42.92;26.80;;;;;;;7.87;99.61;100628.34;5084376;28;20067;-75
2021/03/04 08:05:19;;;;;;;43.15;25.77;;;;;;;8.00;98.92;100639.28;5095087;28;20052;-75
2021/03/04 08:07:48;;;;;;;42.13;26.50;;;;;;;8.02;99.43;100633.91;5095457;28;20047;-74
2021/03/04 08:10:17;;;;;;;46.85;27.52;;;;;;;8.00;99.39;100633.97;5077867;28;20047;-75
2021/03/04 08:12:54;;;;;;;39.63;25.80;;;;;;;8.05;100.00;100639.09;5077182;28;20051;-75
2021/03/04 08:15:29;;;;;;;44.15;26.35;;;;;;;8.09;99.75;100637.16;5094982;28;20052;-74
2021/03/04 08:17:56;;;;;;;34.05;22.25;;;;;;;8.15;99.02;100639.56;5091420;28;20060;-74
2021/03/04 08:20:23;;;;;;;35.15;23.25;;;;;;;8.15;97.99;100640.44;5093940;28;20075;-74
2021/03/04 08:22:52;;;;;;;42.05;25.95;;;;;;;8.14;99.16;100641.38;5095974;28;20087;-75
2021/03/04 08:25:28;;;;;;;29.33;19.65;;;;;;;8.14;98.81;100646.69;5095874;28;20348;-75
2021/03/04 08:27:56;;;;;;;32.47;20.20;;;;;;;8.13;99.01;100639.63;5094608;28;20052;-75
2021/03/04 08:30:29;;;;;;;32.05;19.83;;;;;;;8.18;98.83;100641.22;5095677;28;20051;-74
2021/03/04 08:32:59;;;;;;;19.48;12.82;;;;;;;8.13;95.85;100641.44;5095947;28;20128;-75
2021/03/04 08:35:25;;;;;;;19.20;12.85;;;;;;;8.17;95.70;100637.69;5102878;28;20039;-75
2021/03/04 08:38:06;;;;;;;25.20;14.32;;;;;;;8.31;96.19;100637.09;5095277;28;20138;-74
2021/03/04 08:40:52;;;;;;;24.20;14.32;;;;;;;8.39;96.74;100639.44;5090781;28;20052;-75
2021/03/04 08:43:27;;;;;;;21.50;14.15;;;;;;;8.53;95.38;100637.06;5087832;28;20051;-76
2021/03/04 08:46:04;;;;;;;24.23;15.15;;;;;;;8.53;94.40;100642.38;5093423;28;20058;-76
2021/03/04 08:48:32;;;;;;;19.15;13.32;;;;;;;8.58;94.87;100644.81;5095385;28;20078;-74
2021/03/04 08:51:03;;;;;;;18.25;10.95;;;;;;;8.54;92.75;100637.91;5095529;28;20059;-74
2021/03/04 08:53:31;;;;;;;13.15;9.10;;;;;;;8.53;91.15;100630.84;5095675;28;20464;-75
2021/03/04 08:56:00;;;;;;;15.07;7.47;;;;;;;8.56;92.50;100628.06;5095999;28;20593;-75
2021/03/04 08:58:28;;;;;;;11.15;8.52;;;;;;;8.64;93.57;100625.03;5099526;28;20449;-73
2021/03/04 09:00:59;;;;;;;14.32;9.02;;;;;;;8.75;91.91;100627.22;5107624;28;20062;-73
2021/03/04 09:03:26;;;;;;;15.82;10.40;;;;;;;8.68;92.31;100608.03;5106724;28;20052;-76
2021/03/04 09:06:04;;;;;;;24.88;16.38;;;;;;;8.84;93.91;100616.16;5096013;28;20048;-75
2021/03/04 09:08:42;;;;;;;35.63;24.00;;;;;;;8.68;95.22;100613.34;5096010;28;20054;-75
2021/03/04 09:11:21;;;;;;;35.30;23.83;;;;;;;8.81;95.70;100617.16;5095383;28;20063;-75
2021/03/04 09:13:48;;;;;;;36.42;26.17;;;;;;;8.78;95.78;100625.28;5095101;28;20057;-75
2021/03/04 09:16:14;;;;;;;38.42;24.77;;;;;;;8.55;94.43;100621.00;5095311;28;20059;-74
2021/03/04 09:18:45;;;;;;;38.45;27.42;;;;;;;8.47;95.97;100629.31;5095281;28;20102;-76
2021/03/04 09:21:15;;;;;;;;;;;;;;;8.48;96.30;100632.81;5095455;28;20060;-75
2021/03/04 09:23:41;;;;;;;40.55;25.33;;;;;;;8.41;96.35;100627.78;5094924;28;19920;-76
2021/03/04 09:26:08;;;;;;;36.22;26.23;;;;;;;8.35;96.60;100624.53;5098185;28;20094;-76
2021/03/04 09:28:37;;;;;;;39.10;27.35;;;;;;;8.37;97.14;100631.50;5081408;28;20051;-77
2021/03/04 09:31:15;;;;;;;35.17;25.42;;;;;;;8.29;96.03;100607.91;5081335;28;20055;-75
2021/03/04 09:33:43;;;;;;;48.97;32.20;;;;;;;8.28;96.90;100627.47;5099325;28;20063;-75
2021/03/04 09:36:10;;;;;;;48.70;33.08;;;;;;;8.22;97.05;100627.72;5081300;28;20051;-76
2021/03/04 09:38:38;;;;;;;47.33;32.83;;;;;;;8.10;97.37;100621.16;5099259;28;20330;-76
2021/03/04 09:41:14;;;;;;;46.35;32.90;;;;;;;8.05;97.94;100617.81;5082192;28;20140;-75
2021/03/04 09:43:49;;;;;;;52.75;34.10;;;;;;;8.05;97.95;100603.69;5081214;28;20099;-76
2021/03/04 09:46:36;;;;;;;47.97;31.77;;;;;;;8.21;97.32;100619.81;5098795;28;20059;-76
2021/03/04 09:49:21;;;;;;;46.38;30.02;;;;;;;8.23;97.03;100618.81;5081638;28;20063;-74
2021/03/04 09:51:47;;;;;;;41.92;29.52;;;;;;;8.17;96.88;100615.56;5098420;28;20409;-78
2021/03/04 09:54:27;;;;;;;47.35;29.85;;;;;;;7.97;97.49;100625.28;5098982;28;20330;-76
2021/03/04 09:57:06;;;;;;;48.45;32.13;;;;;;;7.86;97.82;100615.94;5098459;28;20048;-76
2021/03/04 09:59:53;;;;;;;41.13;27.42;;;;;;;7.86;97.46;100626.56;5097900;28;20340;-77
2021/03/04 10:02:20;;;;;;;46.30;29.45;;;;;;;7.71;97.97;100627.22;5098977;28;20048;-75
2021/03/04 10:05:00;;;;;;;50.13;29.33;;;;;;;7.63;97.69;100632.00;5098755;28;20130;-75
2021/03/04 10:07:29;;;;;;;42.22;28.42;;;;;;;7.64;97.72;100629.28;5098779;28;20051;-78
2021/03/04 10:09:56;;;;;;;40.35;27.52;;;;;;;7.63;97.69;100619.56;5080807;28;20340;-75
2021/03/04 10:12:23;;;;;;;38.88;25.40;;;;;;;7.64;97.15;100621.31;5098752;28;20055;-76
2021/03/04 10:14:50;;;;;;;36.90;25.00;;;;;;;7.59;97.13;100628.59;5098248;28;20105;-74
2021/03/04 10:17:17;;;;;;;37.13;24.95;;;;;;;7.48;97.00;100631.72;5094806;28;20075;-76
2021/03/04 10:19:44;;;;;;;35.83;24.95;;;;;;;7.40;97.13;100631.16;5079453;28;20380;-77
2021/03/04 10:22:10;;;;;;;38.20;26.20;;;;;;;7.37;97.22;100629.47;5060450;28;20040;-74
2021/03/04 10:24:37;;;;;;;42.08;23.42;;;;;;;7.27;96.06;100649.34;5077727;28;20048;-74
2021/03/04 10:27:05;;;;;;;39.13;25.23;;;;;;;7.10;96.79;100650.88;5078088;28;20053;-75
2021/03/04 10:29:32;;;;;;;52.97;23.27;;;;;;;6.79;96.14;100641.44;5096210;28;20147;-76
2021/03/04 10:31:59;;;;;;;47.05;25.35;;;;;;;6.58;96.55;100659.88;5079833;28;20044;-78
2021/03/04 10:34:26;;;;;;;51.88;23.35;;;;;;;6.32;96.55;100661.66;5097698;28;20081;-75
2021/03/04 10:36:53;;;;;;;57.35;24.40;;;;;;;6.26;97.91;100675.13;5096497;28;20060;-76
2021/03/04 10:39:21;;;;;;;48.97;24.45;;;;;;;6.33;98.58;100674.00;5097186;28;20085;-77
2021/03/04 10:41:49;;;;;;;45.55;22.77;;;;;;;6.29;97.84;100675.03;5097927;28;20059;-76
2021/03/04 10:44:15;;;;;;;45.35;20.17;;;;;;;6.14;97.34;100664.97;5097697;28;20056;-74
2021/03/04 10:46:41;;;;;;;43.38;19.20;;;;;;;6.14;97.47;100657.88;5097705;28;20363;-76
2021/03/04 10:49:08;;;;;;;36.38;19.33;;;;;;;5.95;97.71;100657.59;5079654;28;20052;-77
2021/03/04 10:51:35;;;;;;;41.80;20.13;;;;;;;5.87;98.29;100654.34;5097530;28;20052;-75
2021/03/04 10:54:03;;;;;;;38.55;18.13;;;;;;;5.90;99.43;100659.53;5097573;28;20048;-76
2021/03/04 10:56:29;;;;;;;34.72;18.35;;;;;;;5.84;100.00;100640.28;5098059;28;20051;-77
2021/03/04 10:58:56;;;;;;;33.13;17.98;;;;;;;5.91;100.00;100646.25;5096826;28;20060;-77
2021/03/04 11:01:22;;;;;;;25.58;15.55;;;;;;;5.95;99.90;100657.59;5097377;28;20368;-73
2021/03/04 11:03:50;;;;;;;24.17;15.23;;;;;;;5.90;99.88;100647.19;5097457;28;20044;-75
2021/03/04 11:06:17;;;;;;;21.60;13.95;;;;;;;5.93;100.00;100648.81;5097045;28;20048;-76
2021/03/04 11:08:43;;;;;;;27.70;14.55;;;;;;;6.00;100.00;100639.78;5096967;28;20376;-77
2021/03/04 11:11:10;;;;;;;21.67;14.25;;;;;;;6.09;100.00;100643.91;5095825;28;20357;-74
2021/03/04 11:13:36;;;;;;;19.65;12.20;;;;;;;6.09;99.29;100643.91;5097138;28;20051;-75
2021/03/04 11:16:03;;;;;;;18.33;11.95;;;;;;;6.09;99.52;100644.78;5096515;28;20052;-77
2021/03/04 11:18:29;;;;;;;18.92;12.35;;;;;;;6.11;99.82;100644.75;5062698;28;20054;-75
2021/03/04 11:20:56;;;;;;;15.60;10.27;;;;;;;6.07;99.69;100635.16;5095022;28;20052;-75
2021/03/04 11:23:22;;;;;;;13.30;9.55;;;;;;;6.08;99.58;100648.34;5096895;28;20141;-73
2021/03/04 11:25:57;;;;;;;11.95;8.38;;;;;;;6.08;98.44;100655.44;5096311;28;20143;-76